createdAt,value
2023-03-06T00:00:23.254Z,18.80
2023-03-06T00:01:23.397Z,19.00
2023-03-06T00:02:23.569Z,16.10
2023-03-06T00:03:23.760Z,16.40
2023-03-06T00:04:23.913Z,16.70
2023-03-06T00:05:24.175Z,17.90
2023-03-06T00:06:24.239Z,17.60
2023-03-06T00:07:24.400Z,19.00
2023-03-06T00:08:24.572Z,17.30
2023-03-06T00:09:24.727Z,19.90
2023-03-06T00:10:24.913Z,18.50
2023-03-06T00:11:25.115Z,17.70
2023-03-06T00:12:25.283Z,17.70
2023-03-06T00:13:25.450Z,18.20
2023-03-06T00:14:25.612Z,19.30
2023-03-06T00:15:25.788Z,19.80
2023-03-06T00:16:25.973Z,19.70
2023-03-06T00:17:26.128Z,19.30
2023-03-06T00:18:26.308Z,20.70
2023-03-06T00:19:26.465Z,21.40
2023-03-06T00:20:26.673Z,21.90
2023-03-06T00:21:26.838Z,21.60
2023-03-06T00:22:27.036Z,21.30
2023-03-06T00:23:28.270Z,25.40
2023-03-06T00:24:27.424Z,23.30
2023-03-06T00:25:27.615Z,24.30
2023-03-06T00:26:27.814Z,26.30
2023-03-06T00:27:27.999Z,23.80
2023-03-06T00:28:28.183Z,24.90
2023-03-06T00:29:28.363Z,25.00
2023-03-06T00:30:28.616Z,25.90
2023-03-06T00:31:28.689Z,25.20
2023-03-06T00:32:28.941Z,23.90
2023-03-06T00:33:29.017Z,22.00
2023-03-06T00:34:29.203Z,24.00
2023-03-06T00:35:29.399Z,23.90
2023-03-06T00:36:29.568Z,24.90
2023-03-06T00:37:29.739Z,26.80
2023-03-06T00:38:29.918Z,24.40
2023-03-06T00:39:30.109Z,25.60
2023-03-06T00:40:30.285Z,24.70
2023-03-06T00:41:30.469Z,24.00
2023-03-06T00:42:30.661Z,23.60
2023-03-06T00:43:30.834Z,22.80
2023-03-06T00:44:32.012Z,22.90
2023-03-06T00:45:31.251Z,22.00
2023-03-06T00:46:31.337Z,21.70
2023-03-06T00:47:31.513Z,23.00
2023-03-06T00:48:31.711Z,22.40
2023-03-06T00:49:31.916Z,22.80
2023-03-06T00:50:32.180Z,22.80
2023-03-06T00:51:32.249Z,22.10
2023-03-06T00:52:32.464Z,22.90
2023-03-06T00:53:32.567Z,21.80
2023-03-06T00:54:32.746Z,21.40
2023-03-06T00:55:32.933Z,21.40
2023-03-06T00:56:33.117Z,20.70
2023-03-06T00:57:33.320Z,21.40
2023-03-06T00:58:33.584Z,21.20
2023-03-06T00:59:33.645Z,21.80
2023-03-06T01:00:33.874Z,21.10
2023-03-06T01:01:34.072Z,21.30
2023-03-06T01:02:34.307Z,20.40
2023-03-06T01:03:34.462Z,20.60
2023-03-06T01:04:34.641Z,21.20
2023-03-06T01:05:34.834Z,20.90
2023-03-06T01:06:35.030Z,21.70
2023-03-06T01:07:35.221Z,21.40
2023-03-06T01:08:35.418Z,21.90
2023-03-06T01:09:35.645Z,22.30
2023-03-06T01:10:36.011Z,21.30
2023-03-06T01:11:35.971Z,21.90
2023-03-06T01:12:36.189Z,22.10
2023-03-06T01:13:36.371Z,21.40
2023-03-06T01:14:36.558Z,21.80
2023-03-06T01:15:37.020Z,22.50
2023-03-06T01:16:36.948Z,21.70
2023-03-06T01:17:37.036Z,22.20
2023-03-06T01:18:37.216Z,21.90
2023-03-06T01:19:37.375Z,21.60
2023-03-06T01:20:37.577Z,22.90
2023-03-06T01:21:37.755Z,22.80
2023-03-06T01:22:37.968Z,23.40
2023-03-06T01:23:38.660Z,23.00
2023-03-06T01:24:38.270Z,23.50
2023-03-06T01:25:38.461Z,23.80
2023-03-06T01:26:38.640Z,22.90
2023-03-06T01:27:38.824Z,23.10
2023-03-06T01:28:39.006Z,24.00
2023-03-06T01:29:39.189Z,24.00
2023-03-06T01:30:39.437Z,23.00
2023-03-06T01:31:39.555Z,24.20
2023-03-06T01:32:39.785Z,24.50
2023-03-06T01:33:39.845Z,25.20
2023-03-06T01:34:41.013Z,24.10
2023-03-06T01:35:40.233Z,25.00
2023-03-06T01:36:40.383Z,25.00
2023-03-06T01:37:40.559Z,25.70
2023-03-06T01:38:40.785Z,25.60
2023-03-06T01:39:40.885Z,26.70
2023-03-06T01:40:41.097Z,26.10
2023-03-06T01:41:41.274Z,27.10
2023-03-06T01:42:41.471Z,26.90
2023-03-06T01:43:41.659Z,27.50
2023-03-06T01:44:41.855Z,27.40
2023-03-06T01:45:42.066Z,27.60
2023-03-06T01:46:42.317Z,27.00
2023-03-06T01:47:42.386Z,27.70
2023-03-06T01:48:42.608Z,27.80
2023-03-06T01:49:42.797Z,29.20
2023-03-06T01:50:43.018Z,28.50
2023-03-06T01:51:43.186Z,29.00
2023-03-06T01:52:43.388Z,29.30
2023-03-06T01:53:43.566Z,29.40
2023-03-06T01:54:43.786Z,29.20
2023-03-06T01:55:43.858Z,29.10
2023-03-06T01:56:44.025Z,30.30
2023-03-06T01:57:44.200Z,30.40
2023-03-06T01:58:44.374Z,29.90
2023-03-06T01:59:44.546Z,30.10
2023-03-06T02:00:44.829Z,30.00
2023-03-06T02:01:44.960Z,29.90
2023-03-06T02:02:45.139Z,30.70
2023-03-06T02:03:45.297Z,30.60
2023-03-06T02:04:45.468Z,30.50
2023-03-06T02:05:45.667Z,30.50
2023-03-06T02:06:45.871Z,29.40
2023-03-06T02:07:46.030Z,30.10
2023-03-06T02:08:46.215Z,30.30
2023-03-06T02:09:46.397Z,30.80
2023-03-06T02:10:46.605Z,30.10
2023-03-06T02:11:46.809Z,30.60
2023-03-06T02:12:46.967Z,29.20
2023-03-06T02:13:47.147Z,29.80
2023-03-06T02:14:47.299Z,29.10
2023-03-06T02:15:47.502Z,29.80
2023-03-06T02:16:47.746Z,29.50
2023-03-06T02:17:47.866Z,28.50
2023-03-06T02:18:47.920Z,29.10
2023-03-06T02:19:48.101Z,28.50
2023-03-06T02:20:48.301Z,28.80
2023-03-06T02:21:48.453Z,28.40
2023-03-06T02:22:48.658Z,28.20
2023-03-06T02:23:48.809Z,28.60
2023-03-06T02:24:48.984Z,28.20
2023-03-06T02:25:49.177Z,26.80
2023-03-06T02:26:49.341Z,26.40
2023-03-06T02:27:49.526Z,26.00
2023-03-06T02:28:49.704Z,25.30
2023-03-06T02:29:49.873Z,26.10
2023-03-06T02:30:50.172Z,25.50
2023-03-06T02:31:50.253Z,25.00
2023-03-06T02:32:50.445Z,25.60
2023-03-06T02:33:50.595Z,24.50
2023-03-06T02:34:50.798Z,24.20
2023-03-06T02:35:50.980Z,24.50
2023-03-06T02:36:51.142Z,23.80
2023-03-06T02:37:51.285Z,24.20
2023-03-06T02:38:51.441Z,23.20
2023-03-06T02:39:51.601Z,22.40
2023-03-06T02:40:51.777Z,23.40
2023-03-06T02:41:52.217Z,23.10
2023-03-06T02:42:52.161Z,22.40
2023-03-06T02:43:52.299Z,22.40
2023-03-06T02:44:52.456Z,22.20
2023-03-06T02:45:52.677Z,22.30
2023-03-06T02:46:52.737Z,22.80
2023-03-06T02:47:52.915Z,22.40
2023-03-06T02:48:53.056Z,21.60
2023-03-06T02:49:53.227Z,21.00
2023-03-06T02:50:53.394Z,21.50
2023-03-06T02:51:53.541Z,21.50
2023-03-06T02:52:53.687Z,20.90
2023-03-06T02:53:53.838Z,19.90
2023-03-06T02:54:53.998Z,20.00
2023-03-06T02:55:54.157Z,20.00
2023-03-06T02:56:54.318Z,20.70
2023-03-06T02:57:54.476Z,19.40
2023-03-06T02:58:54.644Z,19.50
2023-03-06T02:59:54.789Z,19.30
2023-03-06T03:00:54.965Z,18.90
2023-03-06T03:01:55.117Z,18.20
2023-03-06T03:02:55.301Z,18.50
2023-03-06T03:03:55.451Z,18.40
2023-03-06T03:04:55.667Z,19.10
2023-03-06T03:05:55.833Z,18.50
2023-03-06T03:06:56.026Z,18.30
2023-03-06T03:07:56.170Z,17.80
2023-03-06T03:08:56.352Z,17.90
2023-03-06T03:09:56.511Z,18.10
2023-03-06T03:10:56.677Z,17.90
2023-03-06T03:11:56.817Z,15.80
2023-03-06T03:12:56.984Z,17.10
2023-03-06T03:13:57.135Z,15.50
2023-03-06T03:14:57.298Z,14.40
2023-03-06T03:15:57.534Z,15.50
2023-03-06T03:16:57.563Z,14.70
2023-03-06T03:17:57.702Z,15.00
2023-03-06T03:18:57.859Z,15.10
2023-03-06T03:19:58.001Z,15.00
2023-03-06T03:20:58.175Z,14.50
2023-03-06T03:21:58.336Z,14.50
2023-03-06T03:22:58.502Z,13.90
2023-03-06T03:23:58.622Z,13.60
2023-03-06T03:25:05.871Z,13.50
2023-03-06T03:25:59.003Z,12.80
2023-03-06T03:26:59.169Z,11.90
2023-03-06T03:28:00.220Z,11.30
2023-03-06T03:28:59.511Z,11.80
2023-03-06T03:29:59.655Z,11.80
2023-03-06T03:30:59.876Z,11.40
2023-03-06T03:32:00.147Z,11.00
2023-03-06T03:33:00.148Z,12.40
2023-03-06T03:34:00.273Z,10.70
2023-03-06T03:35:00.428Z,10.90
2023-03-06T03:36:00.582Z,10.60
2023-03-06T03:37:00.730Z,11.30
2023-03-06T03:38:00.875Z,10.80
2023-03-06T03:39:01.025Z,10.30
2023-03-06T03:40:01.163Z,10.70
2023-03-06T03:41:01.358Z,10.30
2023-03-06T03:42:01.517Z,10.50
2023-03-06T03:43:01.654Z,10.20
2023-03-06T03:44:01.817Z,10.30
2023-03-06T03:45:02.037Z,9.30
2023-03-06T03:46:02.170Z,10.40
2023-03-06T03:47:02.371Z,9.90
2023-03-06T03:48:02.551Z,10.30
2023-03-06T03:49:02.731Z,10.10
2023-03-06T03:50:02.860Z,10.00
2023-03-06T03:51:03.033Z,10.20
2023-03-06T03:52:03.176Z,9.50
2023-03-06T03:53:03.309Z,10.00
2023-03-06T03:54:03.442Z,10.20
2023-03-06T03:55:03.599Z,10.70
2023-03-06T03:56:03.756Z,10.40
2023-03-06T03:57:03.902Z,10.50
2023-03-06T03:58:04.074Z,10.30
2023-03-06T03:59:04.264Z,10.40
2023-03-06T04:00:04.395Z,10.10
2023-03-06T04:01:04.563Z,9.90
2023-03-06T04:02:04.777Z,10.10
2023-03-06T04:03:04.840Z,9.80
2023-03-06T04:04:04.964Z,10.00
2023-03-06T04:05:05.175Z,10.40
2023-03-06T04:06:05.341Z,11.00
2023-03-06T04:07:05.483Z,10.90
2023-03-06T04:08:05.641Z,9.90
2023-03-06T04:09:05.806Z,10.30
2023-03-06T04:10:05.941Z,10.20
2023-03-06T04:11:06.113Z,9.80
2023-03-06T04:12:06.252Z,10.90
2023-03-06T04:13:08.832Z,10.40
2023-03-06T04:14:06.593Z,10.50
2023-03-06T04:15:06.728Z,10.70
2023-03-06T04:16:06.950Z,11.50
2023-03-06T04:17:07.086Z,12.90
2023-03-06T04:18:07.231Z,12.20
2023-03-06T04:19:07.411Z,11.90
2023-03-06T04:20:07.585Z,11.60
2023-03-06T04:21:07.752Z,12.90
2023-03-06T04:22:07.911Z,12.50
2023-03-06T04:23:08.045Z,12.40
2023-03-06T04:24:08.491Z,11.20
2023-03-06T04:25:08.417Z,11.40
2023-03-06T04:26:08.564Z,9.50
2023-03-06T04:27:08.702Z,11.20
2023-03-06T04:28:08.865Z,11.50
2023-03-06T04:29:08.992Z,8.50
2023-03-06T04:30:09.143Z,10.00
2023-03-06T04:31:09.399Z,8.00
2023-03-06T04:32:09.493Z,8.50
2023-03-06T04:33:09.658Z,7.70
2023-03-06T04:34:09.882Z,8.00
2023-03-06T04:35:10.025Z,8.80
2023-03-06T04:36:10.234Z,7.70
2023-03-06T04:37:10.437Z,8.10
2023-03-06T04:38:10.652Z,7.90
2023-03-06T04:39:10.740Z,7.70
2023-03-06T04:40:10.935Z,10.20
2023-03-06T04:41:11.029Z,9.30
2023-03-06T04:42:11.174Z,9.50
2023-03-06T04:43:11.326Z,8.40
2023-03-06T04:44:11.545Z,8.90
2023-03-06T04:45:11.619Z,7.90
2023-03-06T04:46:11.800Z,11.30
2023-03-06T04:47:11.944Z,8.50
2023-03-06T04:48:12.122Z,10.40
2023-03-06T04:49:12.289Z,10.00
2023-03-06T04:50:12.441Z,12.50
2023-03-06T04:51:12.605Z,14.50
2023-03-06T04:52:12.757Z,15.40
2023-03-06T04:53:12.908Z,9.20
2023-03-06T04:54:13.062Z,10.60
2023-03-06T04:55:13.234Z,20.20
2023-03-06T04:56:13.415Z,12.70
2023-03-06T04:57:13.559Z,11.30
2023-03-06T04:58:13.761Z,12.90
2023-03-06T04:59:13.910Z,12.70
2023-03-06T05:00:14.102Z,13.50
2023-03-06T05:01:14.319Z,10.90
2023-03-06T05:02:14.525Z,16.50
2023-03-06T05:03:14.637Z,14.10
2023-03-06T05:04:14.824Z,14.20
2023-03-06T05:05:15.001Z,11.20
2023-03-06T05:06:15.201Z,11.20
2023-03-06T05:07:15.360Z,12.90
2023-03-06T05:08:15.540Z,11.90
2023-03-06T05:09:15.731Z,11.00
2023-03-06T05:10:15.869Z,11.40
2023-03-06T05:11:16.030Z,17.00
2023-03-06T05:12:16.209Z,9.50
2023-03-06T05:13:16.422Z,8.90
2023-03-06T05:14:16.630Z,10.30
2023-03-06T05:15:16.839Z,10.00
2023-03-06T05:16:17.050Z,10.90
2023-03-06T05:17:17.237Z,10.20
2023-03-06T05:18:18.565Z,10.40
2023-03-06T05:19:17.609Z,9.60
2023-03-06T05:20:17.844Z,9.00
2023-03-06T05:21:17.936Z,9.00
2023-03-06T05:22:18.148Z,9.10
2023-03-06T05:23:18.360Z,8.70
2023-03-06T05:24:18.562Z,8.10
2023-03-06T05:25:18.774Z,8.40
2023-03-06T05:26:18.981Z,8.00
2023-03-06T05:27:19.671Z,7.90
2023-03-06T05:28:19.332Z,7.40
2023-03-06T05:29:19.490Z,7.90
2023-03-06T05:30:19.667Z,8.30
2023-03-06T05:31:19.953Z,8.20
2023-03-06T05:32:20.049Z,8.30
2023-03-06T05:33:20.147Z,8.60
2023-03-06T05:34:20.339Z,9.00
2023-03-06T05:35:20.584Z,9.20
2023-03-06T05:36:20.661Z,8.40
2023-03-06T05:37:20.870Z,8.00
2023-03-06T05:38:21.082Z,8.40
2023-03-06T05:39:21.286Z,8.30
2023-03-06T05:40:21.469Z,8.60
2023-03-06T05:41:21.665Z,8.90
2023-03-06T05:42:21.881Z,8.90
2023-03-06T05:43:22.122Z,9.00
2023-03-06T05:44:22.217Z,9.00
2023-03-06T05:45:22.543Z,9.00
2023-03-06T05:46:22.664Z,8.70
2023-03-06T05:47:22.724Z,8.80
2023-03-06T05:48:22.934Z,8.90
2023-03-06T05:49:23.133Z,8.80
2023-03-06T05:50:23.323Z,9.50
2023-03-06T05:51:23.522Z,9.10
2023-03-06T05:52:23.730Z,9.00
2023-03-06T05:53:23.909Z,9.80
2023-03-06T05:54:24.110Z,11.20
2023-03-06T05:55:24.305Z,10.00
2023-03-06T05:56:24.518Z,9.90
2023-03-06T05:57:24.714Z,9.30
2023-03-06T05:58:24.937Z,9.40
2023-03-06T05:59:25.144Z,10.10
2023-03-06T06:00:25.352Z,9.60
2023-03-06T06:01:25.547Z,10.20
2023-03-06T06:02:25.841Z,9.20
2023-03-06T06:03:25.974Z,9.50
2023-03-06T06:04:26.051Z,9.10
2023-03-06T06:05:26.275Z,10.00
2023-03-06T06:06:26.951Z,9.90
2023-03-06T06:07:26.638Z,11.00
2023-03-06T06:08:26.737Z,10.50
2023-03-06T06:09:26.936Z,10.50
2023-03-06T06:10:27.113Z,11.90
2023-03-06T06:11:27.351Z,10.90
2023-03-06T06:12:27.546Z,11.10
2023-03-06T06:13:27.614Z,10.90
2023-03-06T06:14:27.828Z,11.10
2023-03-06T06:15:28.012Z,10.50
2023-03-06T06:16:28.200Z,10.40
2023-03-06T06:17:28.407Z,10.10
2023-03-06T06:18:28.600Z,10.30
2023-03-06T06:19:28.776Z,10.50
2023-03-06T06:20:29.057Z,11.20
2023-03-06T06:21:29.128Z,10.60
2023-03-06T06:22:29.358Z,10.00
2023-03-06T06:23:29.539Z,9.70
2023-03-06T06:24:29.747Z,9.30
2023-03-06T06:25:29.938Z,9.80
2023-03-06T06:26:30.122Z,9.60
2023-03-06T06:27:30.332Z,10.00
2023-03-06T06:28:30.525Z,9.80
2023-03-06T06:29:32.154Z,9.80
2023-03-06T06:30:30.892Z,9.70
2023-03-06T06:31:31.134Z,10.00
2023-03-06T06:32:31.403Z,10.10
2023-03-06T06:33:31.492Z,9.80
2023-03-06T06:34:31.687Z,10.40
2023-03-06T06:35:31.921Z,10.30
2023-03-06T06:36:31.996Z,10.10
2023-03-06T06:37:32.213Z,10.20
2023-03-06T06:38:32.419Z,10.70
2023-03-06T06:39:32.603Z,11.40
2023-03-06T06:40:32.854Z,11.40
2023-03-06T06:41:51.810Z,12.00
2023-03-06T06:42:39.178Z,13.60
2023-03-06T06:43:34.235Z,11.20
2023-03-06T06:44:33.463Z,11.80
2023-03-06T06:45:33.648Z,12.70
2023-03-06T06:47:18.256Z,13.30
2023-03-06T06:47:35.024Z,14.50
2023-03-06T06:48:34.189Z,12.40
2023-03-06T06:49:34.415Z,12.90
2023-03-06T06:50:34.516Z,12.50
2023-03-06T06:51:34.705Z,14.00
2023-03-06T06:52:34.888Z,13.10
2023-03-06T06:53:35.068Z,12.30
2023-03-06T06:54:35.273Z,12.20
2023-03-06T06:55:35.465Z,11.70
2023-03-06T06:56:35.652Z,11.50
2023-03-06T06:57:35.839Z,13.60
2023-03-06T06:58:36.076Z,12.70
2023-03-06T06:59:36.132Z,12.10
2023-03-06T07:00:36.317Z,12.10
2023-03-06T07:01:36.549Z,11.50
2023-03-06T07:02:36.637Z,12.00
2023-03-06T07:03:36.891Z,11.80
2023-03-06T07:04:36.981Z,11.30
2023-03-06T07:05:37.187Z,11.50
2023-03-06T07:06:37.371Z,11.80
2023-03-06T07:07:37.571Z,10.90
2023-03-06T07:08:37.774Z,10.90
2023-03-06T07:09:37.953Z,10.80
2023-03-06T07:10:38.133Z,11.20
2023-03-06T07:11:38.315Z,11.20
2023-03-06T07:12:38.500Z,11.50
2023-03-06T07:13:38.688Z,12.40
2023-03-06T07:14:38.878Z,11.90
2023-03-06T07:15:39.060Z,10.80
2023-03-06T07:16:39.218Z,10.80
2023-03-06T07:17:39.439Z,11.30
2023-03-06T07:18:39.647Z,10.80
2023-03-06T07:19:39.821Z,11.00
2023-03-06T07:20:40.046Z,10.70
2023-03-06T07:21:40.243Z,10.90
2023-03-06T07:22:50.458Z,10.80
2023-03-06T07:23:41.583Z,11.20
2023-03-06T07:24:40.841Z,10.70
2023-03-06T07:25:40.914Z,10.80
2023-03-06T07:26:41.062Z,11.20
2023-03-06T07:27:41.276Z,11.00
2023-03-06T07:28:52.030Z,11.40
2023-03-06T07:29:42.601Z,10.20
2023-03-06T07:30:41.787Z,9.80
2023-03-06T07:31:41.969Z,11.10
2023-03-06T07:32:42.222Z,11.00
2023-03-06T07:33:42.271Z,10.90
2023-03-06T07:34:42.512Z,11.20
2023-03-06T07:35:42.613Z,11.10
2023-03-06T07:36:42.782Z,10.90
2023-03-06T07:37:42.964Z,10.60
2023-03-06T07:38:43.169Z,10.60
2023-03-06T07:39:43.359Z,10.10
2023-03-06T07:40:43.568Z,10.20
2023-03-06T07:41:43.735Z,9.80
2023-03-06T07:42:43.992Z,9.70
2023-03-06T07:43:44.090Z,9.90
2023-03-06T07:44:44.297Z,8.80
2023-03-06T07:45:44.481Z,9.50
2023-03-06T07:46:44.707Z,9.40
2023-03-06T07:47:44.759Z,8.90
2023-03-06T07:48:44.948Z,10.10
2023-03-06T07:49:45.113Z,9.80
2023-03-06T07:50:45.299Z,9.70
2023-03-06T07:51:45.470Z,10.50
2023-03-06T07:52:45.644Z,10.50
2023-03-06T07:53:45.811Z,10.10
2023-03-06T07:54:45.991Z,10.50
2023-03-06T07:55:46.142Z,10.40
2023-03-06T07:56:46.318Z,10.70
2023-03-06T07:57:46.470Z,10.00
2023-03-06T07:58:46.674Z,11.70
2023-03-06T07:59:46.840Z,11.00
2023-03-06T08:00:47.014Z,10.70
2023-03-06T08:01:47.166Z,9.60
2023-03-06T08:02:47.355Z,9.20
2023-03-06T08:03:47.587Z,8.80
2023-03-06T08:04:47.691Z,9.90
2023-03-06T08:05:47.892Z,9.20
2023-03-06T08:06:48.076Z,8.90
2023-03-06T08:07:48.216Z,8.60
2023-03-06T08:08:48.395Z,10.10
2023-03-06T08:09:48.568Z,9.60
2023-03-06T08:10:48.728Z,10.10
2023-03-06T08:11:48.871Z,8.50
2023-03-06T08:12:49.046Z,9.20
2023-03-06T08:13:49.243Z,8.90
2023-03-06T08:14:49.393Z,8.60
2023-03-06T08:15:49.552Z,8.30
2023-03-06T08:16:49.721Z,8.40
2023-03-06T08:17:49.881Z,7.40
2023-03-06T08:18:50.053Z,8.20
2023-03-06T08:19:50.240Z,5.70
2023-03-06T08:20:50.410Z,6.20
2023-03-06T08:21:50.538Z,6.20
2023-03-06T08:22:50.711Z,5.40
2023-03-06T08:23:50.876Z,5.30
2023-03-06T08:24:51.089Z,7.50
2023-03-06T08:25:51.252Z,6.60
2023-03-06T08:26:51.405Z,6.30
2023-03-06T08:27:51.740Z,6.60
2023-03-06T08:28:51.750Z,7.60
2023-03-06T08:29:51.954Z,8.30
2023-03-06T08:30:52.118Z,6.90
2023-03-06T08:31:52.366Z,7.70
2023-03-06T08:32:52.393Z,9.10
2023-03-06T08:33:52.584Z,8.20
2023-03-06T08:34:52.766Z,7.10
2023-03-06T08:35:53.033Z,4.90
2023-03-06T08:36:53.104Z,4.80
2023-03-06T08:37:53.283Z,5.10
2023-03-06T08:38:53.464Z,4.70
2023-03-06T08:39:53.656Z,5.20
2023-03-06T08:40:53.834Z,5.20
2023-03-06T08:41:53.991Z,5.70
2023-03-06T08:42:54.150Z,5.20
2023-03-06T08:43:54.338Z,6.60
2023-03-06T08:44:54.522Z,5.80
2023-03-06T08:45:54.736Z,5.20
2023-03-06T08:46:54.803Z,6.20
2023-03-06T08:47:54.976Z,5.80
2023-03-06T08:48:55.185Z,7.00
2023-03-06T08:49:55.270Z,6.60
2023-03-06T08:50:55.438Z,6.30
2023-03-06T08:51:55.603Z,6.10
2023-03-06T08:52:55.773Z,6.10
2023-03-06T08:53:55.936Z,5.00
2023-03-06T08:54:56.108Z,4.80
2023-03-06T08:55:56.284Z,5.10
2023-03-06T08:56:56.444Z,5.40
2023-03-06T08:57:56.628Z,5.00
2023-03-06T08:58:56.817Z,5.60
2023-03-06T08:59:57.039Z,5.50
2023-03-06T09:00:57.299Z,4.90
2023-03-06T09:01:57.396Z,4.90
2023-03-06T09:02:57.481Z,4.90
2023-03-06T09:03:57.660Z,4.70
2023-03-06T09:04:57.850Z,4.90
2023-03-06T09:05:58.075Z,4.80
2023-03-06T09:06:58.122Z,5.10
2023-03-06T09:07:58.292Z,5.20
2023-03-06T09:08:58.458Z,5.40
2023-03-06T09:09:58.655Z,5.60
2023-03-06T09:10:58.945Z,5.20
2023-03-06T09:11:59.036Z,5.60
2023-03-06T09:12:59.203Z,5.40
2023-03-06T09:13:59.372Z,5.20
2023-03-06T09:14:59.536Z,5.10
2023-03-06T09:15:59.714Z,5.20
2023-03-06T09:16:59.935Z,5.50
2023-03-06T09:18:00.011Z,5.20
2023-03-06T09:19:00.157Z,5.70
2023-03-06T09:20:00.356Z,4.90
2023-03-06T09:21:00.501Z,5.90
2023-03-06T09:22:00.662Z,6.60
2023-03-06T09:23:00.834Z,8.50
2023-03-06T09:24:01.020Z,16.20
2023-03-06T09:25:08.179Z,4.10
2023-03-06T09:26:04.014Z,4.20
2023-03-06T09:27:01.484Z,5.20
2023-03-06T09:28:11.026Z,10.10
2023-03-06T09:29:02.781Z,8.80
2023-03-06T09:30:01.952Z,22.80
2023-03-06T09:31:02.168Z,26.20
2023-03-06T09:32:02.376Z,15.00
2023-03-06T09:33:02.452Z,10.70
2023-03-06T09:34:02.621Z,12.30
2023-03-06T09:35:02.789Z,8.50
2023-03-06T09:36:02.978Z,5.80
2023-03-06T09:37:03.141Z,7.70
2023-03-06T09:38:03.333Z,5.50
2023-03-06T09:39:03.487Z,3.80
2023-03-06T09:40:03.652Z,9.90
2023-03-06T09:41:03.827Z,4.50
2023-03-06T09:42:03.990Z,5.00
2023-03-06T09:43:04.145Z,5.90
2023-03-06T09:44:04.320Z,3.40
2023-03-06T09:45:04.471Z,4.10
2023-03-06T09:46:04.766Z,4.10
2023-03-06T09:47:04.795Z,3.60
2023-03-06T09:48:04.972Z,5.30
2023-03-06T09:49:05.129Z,6.20
2023-03-06T09:50:05.297Z,6.10
2023-03-06T09:51:05.465Z,2.60
2023-03-06T09:52:05.625Z,3.60
2023-03-06T09:53:05.772Z,7.20
2023-03-06T09:54:05.936Z,5.40
2023-03-06T09:55:06.085Z,5.40
2023-03-06T09:56:06.281Z,2.50
2023-03-06T09:57:06.449Z,3.80
2023-03-06T09:58:07.506Z,3.00
2023-03-06T09:59:06.735Z,2.60
2023-03-06T10:00:06.930Z,3.60
2023-03-06T10:01:07.083Z,3.10
2023-03-06T10:02:07.358Z,3.20
2023-03-06T10:03:07.520Z,3.00
2023-03-06T10:04:07.576Z,3.40
2023-03-06T10:05:07.757Z,3.60
2023-03-06T10:06:07.948Z,4.20
2023-03-06T10:07:08.096Z,4.90
2023-03-06T10:08:08.285Z,4.30
2023-03-06T10:09:08.442Z,5.90
2023-03-06T10:10:08.598Z,5.90
2023-03-06T10:11:08.777Z,4.90
2023-03-06T10:12:08.915Z,5.60
2023-03-06T10:13:09.059Z,3.90
2023-03-06T10:14:09.231Z,9.60
2023-03-06T10:15:09.371Z,4.90
2023-03-06T10:16:09.579Z,4.10
2023-03-06T10:17:09.603Z,11.10
2023-03-06T10:18:09.777Z,9.10
2023-03-06T10:19:09.925Z,6.10
2023-03-06T10:20:10.077Z,3.40
2023-03-06T10:21:19.090Z,2.20
2023-03-06T10:22:11.331Z,3.20
2023-03-06T10:23:11.184Z,5.20
2023-03-06T10:24:10.683Z,3.40
2023-03-06T10:25:10.832Z,2.90
2023-03-06T10:26:11.039Z,3.40
2023-03-06T10:27:11.196Z,3.40
2023-03-06T10:28:11.352Z,3.80
2023-03-06T10:29:11.509Z,3.00
2023-03-06T10:30:11.651Z,4.60
2023-03-06T10:31:11.861Z,4.40
2023-03-06T10:32:11.997Z,5.60
2023-03-06T10:33:12.123Z,3.40
2023-03-06T10:34:12.263Z,4.10
2023-03-06T10:35:12.400Z,2.60
2023-03-06T10:36:12.559Z,3.10
2023-03-06T10:37:12.697Z,2.60
2023-03-06T10:38:12.893Z,2.10
2023-03-06T10:39:13.003Z,2.20
2023-03-06T10:40:13.177Z,2.90
2023-03-06T10:41:13.329Z,2.70
2023-03-06T10:42:13.473Z,2.00
2023-03-06T10:43:13.635Z,1.90
2023-03-06T10:44:13.769Z,3.20
2023-03-06T10:45:13.907Z,2.50
2023-03-06T10:46:14.112Z,2.50
2023-03-06T10:47:14.212Z,2.60
2023-03-06T10:48:14.368Z,2.60
2023-03-06T10:49:14.487Z,2.20
2023-03-06T10:50:14.635Z,2.50
2023-03-06T10:51:18.642Z,2.40
2023-03-06T10:52:14.962Z,2.40
2023-03-06T10:53:15.090Z,2.20
2023-03-06T10:54:15.240Z,2.70
2023-03-06T10:55:15.370Z,2.30
2023-03-06T10:56:15.522Z,2.90
2023-03-06T10:57:15.655Z,3.00
2023-03-06T10:58:15.783Z,2.90
2023-03-06T10:59:15.913Z,2.20
2023-03-06T11:00:16.049Z,3.50
2023-03-06T11:01:16.220Z,2.60
2023-03-06T11:02:16.329Z,2.70
2023-03-06T11:03:16.454Z,2.50
2023-03-06T11:04:16.634Z,2.20
2023-03-06T11:05:16.782Z,2.50
2023-03-06T11:06:16.943Z,13.70
2023-03-06T11:07:17.079Z,4.80
2023-03-06T11:08:17.200Z,2.90
2023-03-06T11:09:17.329Z,3.30
2023-03-06T11:10:17.464Z,3.60
2023-03-06T11:11:28.172Z,3.00
2023-03-06T11:12:18.792Z,4.80
2023-03-06T11:13:17.910Z,4.60
2023-03-06T11:14:18.052Z,4.60
2023-03-06T11:15:18.174Z,15.70
2023-03-06T11:16:18.324Z,29.30
2023-03-06T11:17:18.430Z,17.60
2023-03-06T11:18:18.543Z,10.30
2023-03-06T11:19:18.667Z,9.10
2023-03-06T11:20:18.873Z,5.90
2023-03-06T11:21:19.006Z,4.50
2023-03-06T11:22:19.162Z,4.00
2023-03-06T11:23:19.242Z,5.80
2023-03-06T11:24:19.359Z,5.80
2023-03-06T11:25:19.479Z,3.00
2023-03-06T11:26:19.630Z,7.60
2023-03-06T11:27:19.741Z,2.70
2023-03-06T11:28:19.849Z,6.90
2023-03-06T11:29:19.993Z,4.30
2023-03-06T11:30:20.102Z,2.30
2023-03-06T11:31:20.240Z,4.20
2023-03-06T11:32:20.363Z,5.40
2023-03-06T11:33:20.476Z,2.30
2023-03-06T11:34:20.604Z,2.00
2023-03-06T11:35:20.754Z,1.90
2023-03-06T11:36:20.877Z,2.30
2023-03-06T11:37:20.982Z,1.60
2023-03-06T11:38:21.096Z,3.00
2023-03-06T11:39:21.203Z,1.70
2023-03-06T11:40:21.337Z,1.50
2023-03-06T11:41:21.457Z,1.40
2023-03-06T11:42:21.562Z,1.70
2023-03-06T11:43:21.648Z,1.10
2023-03-06T11:44:21.758Z,1.20
2023-03-06T11:45:21.852Z,1.20
2023-03-06T11:46:22.061Z,1.40
2023-03-06T11:47:22.108Z,1.50
2023-03-06T11:48:22.204Z,1.50
2023-03-06T11:49:22.292Z,1.20
2023-03-06T11:50:22.512Z,1.30
2023-03-06T11:51:22.622Z,1.30
2023-03-06T11:52:22.732Z,1.30
2023-03-06T11:53:22.817Z,1.10
2023-03-06T11:54:23.023Z,1.50
2023-03-06T11:55:23.131Z,1.30
2023-03-06T11:56:23.261Z,1.40
2023-03-06T11:57:23.375Z,1.50
2023-03-06T11:58:23.524Z,1.60
2023-03-06T11:59:23.609Z,1.90
2023-03-06T12:00:23.805Z,2.50
2023-03-06T12:01:23.921Z,3.00
2023-03-06T12:02:24.111Z,2.80
2023-03-06T12:03:24.236Z,3.40
2023-03-06T12:04:24.329Z,6.20
2023-03-06T12:05:24.526Z,4.70
2023-03-06T12:06:24.628Z,2.90
2023-03-06T12:07:24.698Z,11.70
2023-03-06T12:08:24.903Z,3.90
2023-03-06T12:09:25.095Z,2.40
2023-03-06T12:10:25.272Z,3.20
2023-03-06T12:11:25.479Z,2.80
2023-03-06T12:12:25.537Z,2.90
2023-03-06T12:14:25.834Z,1.70
2023-03-06T12:15:25.989Z,1.80
2023-03-06T12:16:26.224Z,2.20
2023-03-06T12:17:26.257Z,2.20
2023-03-06T12:18:26.448Z,2.00
2023-03-06T12:19:26.609Z,1.60
2023-03-06T12:20:26.784Z,1.60
2023-03-06T12:21:26.947Z,1.20
2023-03-06T12:22:27.134Z,1.30
2023-03-06T12:23:27.246Z,1.90
2023-03-06T12:24:27.406Z,1.90
2023-03-06T12:25:27.563Z,1.80
2023-03-06T12:26:27.753Z,1.40
2023-03-06T12:27:27.805Z,1.20
2023-03-06T12:28:27.982Z,1.60
2023-03-06T12:29:28.151Z,1.40
2023-03-06T12:30:28.374Z,2.00
2023-03-06T12:31:28.457Z,1.50
2023-03-06T12:32:28.658Z,1.40
2023-03-06T12:33:28.787Z,1.30
2023-03-06T12:34:28.946Z,1.60
2023-03-06T12:35:29.114Z,1.40
2023-03-06T12:36:29.287Z,1.30
2023-03-06T12:37:29.443Z,1.10
2023-03-06T12:38:29.846Z,1.30
2023-03-06T12:39:29.781Z,1.20
2023-03-06T12:40:29.924Z,1.40
2023-03-06T12:41:30.099Z,1.40
2023-03-06T12:42:30.240Z,1.50
2023-03-06T12:43:30.399Z,1.60
2023-03-06T12:44:30.530Z,1.30
2023-03-06T12:45:30.680Z,1.40
2023-03-06T12:46:30.831Z,1.60
2023-03-06T12:47:30.968Z,1.90
2023-03-06T12:48:31.099Z,1.50
2023-03-06T12:49:33.185Z,1.90
2023-03-06T12:50:31.300Z,1.90
2023-03-06T12:51:31.449Z,1.40
2023-03-06T12:52:31.563Z,1.40
2023-03-06T12:53:31.708Z,1.30
2023-03-06T12:54:31.823Z,1.40
2023-03-06T12:55:31.975Z,1.30
2023-03-06T12:56:32.108Z,1.20
2023-03-06T12:57:32.218Z,1.30
2023-03-06T12:58:32.340Z,1.30
2023-03-06T12:59:32.450Z,1.20
2023-03-06T13:00:32.586Z,1.10
2023-03-06T13:01:32.781Z,1.30
2023-03-06T13:02:32.934Z,1.30
2023-03-06T13:03:33.013Z,1.40
2023-03-06T13:04:33.116Z,0.90
2023-03-06T13:05:33.227Z,0.90
2023-03-06T13:06:36.643Z,1.00
2023-03-06T13:07:34.401Z,1.10